Time;durP1;ratioP1;P1;durP2;ratioP2;P2;SDS_P1;SDS_P2;PMS_P1;PMS_P2;Temp;Humidity;BMP_temperature;BMP_pressure;BME280_temperature;BME280_humidity;BME280_pressure;Samples;Min_cycle;Max_cycle;Signal;HPM_P1;HPM_P2
2023/12/24 00:01:22;;;;;;;0.57;0.22;;;9.60;99.90;;;;;;4833297;29;20242;-78
2023/12/24 00:03:56;;;;;;;0.65;0.30;;;9.60;99.80;;;;;;4834058;29;20064;-78
2023/12/24 00:06:31;;;;;;;0.63;0.20;;;9.60;99.90;;;;;;4847896;29;20048;-78
2023/12/24 00:08:59;;;;;;;1.02;0.30;;;9.50;99.90;;;;;;4833353;29;20045;-77
2023/12/24 00:11:32;;;;;;;1.48;0.28;;;9.50;99.90;;;;;;4849991;29;20223;-79
2023/12/24 00:13:58;;;;;;;0.55;0.20;;;9.50;99.70;;;;;;4852045;29;20038;-78
2023/12/24 00:16:23;;;;;;;0.82;0.20;;;9.50;99.70;;;;;;4852232;29;20189;-76
2023/12/24 00:18:49;;;;;;;0.57;0.20;;;9.50;99.70;;;;;;4865893;29;20056;-80
2023/12/24 00:21:16;;;;;;;1.58;0.40;;;9.50;99.80;;;;;;4852038;29;20309;-77
2023/12/24 00:23:42;;;;;;;0.50;0.20;;;9.50;99.70;;;;;;4852002;29;20029;-77
2023/12/24 00:26:11;;;;;;;1.98;0.30;;;9.50;99.50;;;;;;4865700;29;20328;-77
2023/12/24 00:28:37;;;;;;;0.90;0.15;;;9.60;99.50;;;;;;4865308;29;20100;-77
2023/12/24 00:31:28;;;;;;;0.88;0.20;;;9.60;99.50;;;;;;4850709;29;20066;-79
2023/12/24 00:33:54;;;;;;;1.92;0.30;;;9.60;99.40;;;;;;4851256;29;20030;-79
2023/12/24 00:36:20;;;;;;;1.17;0.22;;;9.60;99.40;;;;;;4851860;29;20041;-78
2023/12/24 00:38:49;;;;;;;0.75;0.20;;;9.70;99.10;;;;;;4851651;29;20026;-77
2023/12/24 00:41:16;;;;;;;0.65;0.20;;;9.70;99.00;;;;;;4850919;29;20113;-79
2023/12/24 00:43:48;;;;;;;1.15;0.17;;;9.70;98.90;;;;;;4850141;29;20030;-78
2023/12/24 00:46:14;;;;;;;0.73;0.20;;;9.70;99.00;;;;;;4857507;29;20025;-77
2023/12/24 00:48:41;;;;;;;0.50;0.17;;;9.70;99.10;;;;;;4865319;29;20217;-77
2023/12/24 00:51:22;;;;;;;0.90;0.30;;;9.70;99.20;;;;;;4881681;29;20489;-76
2023/12/24 00:53:47;;;;;;;1.45;0.20;;;9.60;99.10;;;;;;4884065;29;20359;-81
2023/12/24 00:56:39;;;;;;;1.20;0.20;;;9.70;99.00;;;;;;4870239;29;20110;-78
2023/12/24 00:59:05;;;;;;;0.75;0.20;;;9.60;99.10;;;;;;4880933;29;20042;-78
2023/12/24 01:01:31;;;;;;;0.30;0.20;;;9.60;98.90;;;;;;4880588;29;20034;-77
2023/12/24 01:03:57;;;;;;;1.10;0.20;;;9.60;98.90;;;;;;4865210;29;20200;-77
2023/12/24 01:06:22;;;;;;;0.90;0.40;;;9.60;99.00;;;;;;4851132;29;20048;-78
2023/12/24 01:08:48;;;;;;;0.68;0.20;;;9.50;98.90;;;;;;4851268;29;20236;-79
2023/12/24 01:11:14;;;;;;;0.50;0.15;;;9.50;99.00;;;;;;4855723;29;20022;-76
2023/12/24 01:13:40;;;;;;;0.70;0.10;;;9.50;98.90;;;;;;4853888;29;20036;-78
2023/12/24 01:16:09;;;;;;;1.02;0.20;;;9.50;98.80;;;;;;4853981;29;20030;-78
2023/12/24 01:18:34;;;;;;;1.10;0.25;;;9.40;98.90;;;;;;4854241;29;20142;-78
2023/12/24 01:21:00;;;;;;;0.75;0.20;;;9.40;98.90;;;;;;4853786;29;20034;-78
2023/12/24 01:23:26;;;;;;;0.68;0.10;;;9.40;99.00;;;;;;4854387;29;20331;-77
2023/12/24 01:25:51;;;;;;;1.55;0.22;;;9.40;99.00;;;;;;4854215;29;20072;-77
2023/12/24 01:28:17;;;;;;;0.80;0.25;;;9.40;99.00;;;;;;4853906;29;20025;-78
2023/12/24 01:30:43;;;;;;;2.17;0.20;;;9.40;98.90;;;;;;4853268;29;20065;-77
2023/12/24 01:33:09;;;;;;;0.20;0.10;;;9.40;98.80;;;;;;4853551;29;20050;-77
2023/12/24 01:35:34;;;;;;;0.73;0.10;;;9.40;99.20;;;;;;4853763;29;20075;-76
2023/12/24 01:38:00;;;;;;;0.77;0.10;;;9.50;99.00;;;;;;4854684;29;20038;-79
2023/12/24 01:40:26;;;;;;;1.35;0.20;;;9.60;98.80;;;;;;4854782;29;20030;-77
2023/12/24 01:42:52;;;;;;;0.68;0.20;;;9.60;98.70;;;;;;4853266;29;20037;-77
2023/12/24 01:45:18;;;;;;;1.42;0.28;;;9.60;98.60;;;;;;4853155;29;20038;-78
2023/12/24 01:48:25;;;;;;;1.10;0.20;;;9.60;98.60;;;;;;4854217;29;20033;-78
2023/12/24 01:50:57;;;;;;;1.02;0.20;;;9.60;98.60;;;;;;4859313;29;20112;-78
2023/12/24 01:53:50;;;;;;;0.77;0.20;;;9.60;98.60;;;;;;4856127;29;20634;-78
2023/12/24 01:56:19;;;;;;;0.50;0.20;;;9.50;98.60;;;;;;4782771;30;20035;-78
2023/12/24 01:58:45;;;;;;;1.85;0.10;;;9.50;98.50;;;;;;4849381;29;20069;-78
2023/12/24 02:01:11;;;;;;;0.73;0.20;;;9.60;98.50;;;;;;4853035;29;20304;-79
2023/12/24 02:03:37;;;;;;;0.60;0.20;;;9.60;98.40;;;;;;4852634;29;20045;-78
2023/12/24 02:06:08;;;;;;;1.75;0.28;;;9.70;98.20;;;;;;4854470;29;20102;-78
2023/12/24 02:08:36;;;;;;;0.60;0.25;;;9.60;98.30;;;;;;4852700;29;20173;-75
2023/12/24 02:11:05;;;;;;;1.05;0.32;;;9.60;98.20;;;;;;4841064;29;20040;-78
2023/12/24 02:13:32;;;;;;;0.98;0.30;;;9.60;98.10;;;;;;4852165;29;20042;-76
2023/12/24 02:16:00;;;;;;;1.10;0.20;;;9.70;97.90;;;;;;4854258;29;20081;-76
2023/12/24 02:18:26;;;;;;;1.08;0.20;;;9.70;97.80;;;;;;4854108;29;20034;-77
2023/12/24 02:20:58;;;;;;;0.70;0.30;;;9.70;97.90;;;;;;4852599;29;20117;-76
2023/12/24 02:23:24;;;;;;;0.35;0.20;;;9.70;97.90;;;;;;4853023;29;20083;-79
2023/12/24 02:25:55;;;;;;;0.73;0.20;;;9.70;98.00;;;;;;4851860;29;20068;-77
2023/12/24 02:28:31;;;;;;;1.27;0.30;;;9.60;97.90;;;;;;4852815;29;20037;-79
2023/12/24 02:31:03;;;;;;;2.75;0.40;;;9.70;98.00;;;;;;4853881;29;20308;-76
2023/12/24 02:33:37;;;;;;;0.52;0.20;;;9.60;98.00;;;;;;4851878;29;20069;-76
2023/12/24 02:36:06;;;;;;;0.88;0.30;;;9.60;98.10;;;;;;4852989;29;20042;-77
2023/12/24 02:38:33;;;;;;;0.63;0.20;;;9.60;98.20;;;;;;4852382;29;20217;-77
2023/12/24 02:40:59;;;;;;;0.43;0.20;;;9.60;98.20;;;;;;4837006;29;20033;-77
2023/12/24 02:43:25;;;;;;;1.23;0.30;;;9.60;98.30;;;;;;4851823;29;20242;-76
2023/12/24 02:45:51;;;;;;;1.80;0.35;;;9.60;98.30;;;;;;4851838;29;20082;-76
2023/12/24 02:48:19;;;;;;;0.80;0.20;;;9.60;98.30;;;;;;4853725;29;20026;-78
2023/12/24 02:51:00;;;;;;;1.05;0.30;;;9.50;98.30;;;;;;4865907;29;20036;-79
2023/12/24 02:53:25;;;;;;;1.75;0.30;;;9.50;98.60;;;;;;4871873;29;20049;-77
2023/12/24 02:55:51;;;;;;;1.13;0.20;;;9.40;98.80;;;;;;4871545;29;20037;-76
2023/12/24 02:58:17;;;;;;;0.80;0.20;;;9.40;98.70;;;;;;4871072;29;20048;-76
2023/12/24 03:00:43;;;;;;;1.05;0.20;;;9.40;98.80;;;;;;4871893;29;20108;-77
2023/12/24 03:03:12;;;;;;;0.95;0.20;;;9.50;98.80;;;;;;4859465;29;20036;-77
2023/12/24 03:05:37;;;;;;;0.90;0.20;;;9.50;98.80;;;;;;4860627;29;20050;-77
2023/12/24 03:08:03;;;;;;;0.68;0.20;;;9.50;98.80;;;;;;4853365;29;20280;-78
2023/12/24 03:10:29;;;;;;;1.15;0.30;;;9.50;98.80;;;;;;4852553;29;20033;-77
2023/12/24 03:12:55;;;;;;;1.13;0.20;;;9.50;98.80;;;;;;4853163;29;20384;-78
2023/12/24 03:15:20;;;;;;;0.70;0.30;;;9.50;98.90;;;;;;4852094;29;20102;-78
2023/12/24 03:17:46;;;;;;;0.88;0.20;;;9.60;98.80;;;;;;4866916;29;20029;-77
2023/12/24 03:20:13;;;;;;;0.82;0.20;;;9.60;98.90;;;;;;4852002;29;20046;-78
2023/12/24 03:22:38;;;;;;;1.30;0.22;;;9.50;98.90;;;;;;4851513;29;20229;-77
2023/12/24 03:25:04;;;;;;;1.27;0.30;;;9.50;99.00;;;;;;4852795;29;20163;-78
2023/12/24 03:27:30;;;;;;;3.72;0.50;;;9.50;98.90;;;;;;4852043;29;20105;-76
2023/12/24 03:29:58;;;;;;;2.60;0.30;;;9.50;98.90;;;;;;4851764;29;20018;-76
2023/12/24 03:32:33;;;;;;;1.33;0.30;;;9.60;99.00;;;;;;4851416;29;20022;-76
2023/12/24 03:34:59;;;;;;;0.57;0.20;;;9.60;98.80;;;;;;4851990;29;20038;-75
2023/12/24 03:37:24;;;;;;;0.73;0.20;;;9.60;98.90;;;;;;4852744;29;20038;-76
2023/12/24 03:39:50;;;;;;;0.93;0.30;;;9.50;99.00;;;;;;4852101;29;20046;-78
2023/12/24 03:42:15;;;;;;;5.22;1.73;;;9.60;99.00;;;;;;4852714;29;20029;-77
2023/12/24 03:44:41;;;;;;;0.52;0.22;;;9.60;99.00;;;;;;4851829;29;20042;-78
2023/12/24 03:47:07;;;;;;;0.63;0.22;;;9.60;99.10;;;;;;4852892;29;20100;-77
2023/12/24 03:49:33;;;;;;;1.95;0.30;;;9.60;99.00;;;;;;4855857;29;20076;-78
2023/12/24 03:51:59;;;;;;;0.82;0.25;;;9.50;98.90;;;;;;4883260;29;20201;-76
2023/12/24 03:54:26;;;;;;;1.38;0.30;;;9.60;99.00;;;;;;4851527;29;20053;-77
2023/12/24 03:57:21;;;;;;;1.58;0.35;;;9.50;99.00;;;;;;4851987;29;20034;-79
2023/12/24 03:59:50;;;;;;;0.70;0.20;;;9.50;99.00;;;;;;4843981;29;20328;-78
2023/12/24 04:02:24;;;;;;;;;;;9.50;99.00;;;;;;4852840;29;20038;-79
2023/12/24 04:04:50;;;;;;;0.75;0.20;;;9.50;99.10;;;;;;4851947;29;19917;-78
2023/12/24 04:07:16;;;;;;;2.03;0.20;;;9.40;99.10;;;;;;4836387;29;20042;-77
2023/12/24 04:09:45;;;;;;;1.80;0.35;;;9.50;99.10;;;;;;4851331;29;20014;-75
2023/12/24 04:12:11;;;;;;;0.57;0.20;;;9.40;99.20;;;;;;4852242;29;20241;-77
2023/12/24 04:14:37;;;;;;;0.65;0.30;;;9.40;99.30;;;;;;4851303;29;20139;-78
2023/12/24 04:17:12;;;;;;;0.70;0.20;;;9.40;99.30;;;;;;4852259;29;20367;-77
2023/12/24 04:19:38;;;;;;;0.50;0.15;;;9.40;99.10;;;;;;4851418;29;20065;-78
2023/12/24 04:22:04;;;;;;;1.88;0.30;;;9.50;99.10;;;;;;4850725;29;20030;-78
2023/12/24 04:24:33;;;;;;;2.53;0.40;;;9.50;99.10;;;;;;4850011;29;20022;-79
2023/12/24 04:26:58;;;;;;;0.63;0.20;;;9.50;99.10;;;;;;4850465;29;20321;-77
2023/12/24 04:29:42;;;;;;;0.65;0.30;;;9.40;99.00;;;;;;4850912;29;20030;-78
2023/12/24 04:32:14;;;;;;;0.95;0.20;;;9.50;98.90;;;;;;4850658;29;20304;-77
2023/12/24 04:34:40;;;;;;;0.63;0.20;;;9.50;98.80;;;;;;4850040;29;20083;-75
2023/12/24 04:37:09;;;;;;;1.17;0.38;;;9.50;98.80;;;;;;4850553;29;20022;-78
2023/12/24 04:39:35;;;;;;;0.88;0.30;;;9.50;98.80;;;;;;4851350;29;20339;-78
2023/12/24 04:42:01;;;;;;;1.55;0.43;;;9.60;98.70;;;;;;4834936;29;20212;-76
2023/12/24 04:44:28;;;;;;;0.73;0.20;;;9.60;98.60;;;;;;4849642;29;20037;-77
2023/12/24 04:46:54;;;;;;;0.90;0.30;;;9.60;98.70;;;;;;4850803;29;20033;-77
2023/12/24 04:49:20;;;;;;;0.88;0.30;;;9.50;98.80;;;;;;4853025;29;20030;-77
2023/12/24 04:51:49;;;;;;;0.77;0.30;;;9.50;98.90;;;;;;4868411;29;20025;-79
2023/12/24 04:54:14;;;;;;;1.67;0.60;;;9.50;98.90;;;;;;4868920;29;20095;-77
2023/12/24 04:56:40;;;;;;;1.10;0.30;;;9.50;99.00;;;;;;4868314;29;20041;-77
2023/12/24 04:59:06;;;;;;;0.68;0.20;;;9.40;99.20;;;;;;4849152;29;20037;-76
2023/12/24 05:01:32;;;;;;;1.30;0.30;;;9.40;99.20;;;;;;4847045;29;20300;-78
2023/12/24 05:04:01;;;;;;;1.02;0.28;;;9.30;99.50;;;;;;4847607;29;20082;-76
2023/12/24 05:06:30;;;;;;;0.90;0.40;;;9.20;99.60;;;;;;4833287;29;20046;-75
2023/12/24 05:08:56;;;;;;;1.35;0.40;;;9.20;99.70;;;;;;4833232;29;20044;-76
2023/12/24 05:11:22;;;;;;;1.25;0.35;;;9.20;99.70;;;;;;4832545;29;20022;-77
2023/12/24 05:13:48;;;;;;;1.75;0.40;;;9.20;99.80;;;;;;4832002;29;20276;-77
2023/12/24 05:16:37;;;;;;;0.60;0.30;;;9.20;99.80;;;;;;4846811;29;20318;-78
2023/12/24 05:19:02;;;;;;;0.90;0.30;;;9.20;99.90;;;;;;4847737;29;20035;-77
2023/12/24 05:21:29;;;;;;;1.67;0.40;;;9.20;99.80;;;;;;4832854;29;20105;-76
2023/12/24 05:23:58;;;;;;;0.80;0.30;;;9.10;99.90;;;;;;4847562;29;20027;-78
2023/12/24 05:26:24;;;;;;;0.63;0.25;;;9.10;99.90;;;;;;4847019;29;20031;-77
2023/12/24 05:28:54;;;;;;;0.65;0.30;;;9.10;99.90;;;;;;4847346;29;20212;-77
2023/12/24 05:31:19;;;;;;;1.65;0.30;;;9.10;99.90;;;;;;4847183;29;20220;-76
2023/12/24 05:34:02;;;;;;;0.80;0.30;;;9.10;99.90;;;;;;4846517;29;20014;-76
2023/12/24 05:37:00;;;;;;;1.65;0.30;;;9.10;99.90;;;;;;4832690;29;20041;-77
2023/12/24 05:39:27;;;;;;;0.80;0.20;;;9.00;99.90;;;;;;4797422;29;20319;-77
2023/12/24 05:41:53;;;;;;;1.25;0.30;;;9.00;99.90;;;;;;4797421;29;20051;-78
2023/12/24 05:44:24;;;;;;;1.02;0.20;;;9.00;99.90;;;;;;4812678;29;20337;-77
2023/12/24 05:46:57;;;;;;;0.73;0.28;;;9.00;99.90;;;;;;4812392;29;20076;-76
2023/12/24 05:49:33;;;;;;;1.95;0.20;;;9.00;99.90;;;;;;4800274;29;20051;-78
2023/12/24 05:52:13;;;;;;;1.05;0.38;;;9.00;99.90;;;;;;4794555;30;20215;-78
2023/12/24 05:54:39;;;;;;;0.70;0.20;;;9.00;99.90;;;;;;4793865;29;20257;-80
2023/12/24 05:57:21;;;;;;;0.90;0.20;;;9.00;99.90;;;;;;4784471;30;20039;-77
2023/12/24 05:59:47;;;;;;;1.35;0.20;;;9.00;99.90;;;;;;4782582;30;20039;-77
2023/12/24 06:02:42;;;;;;;0.70;0.20;;;9.00;99.90;;;;;;4798164;30;20050;-76
2023/12/24 06:05:08;;;;;;;0.57;0.20;;;9.10;99.90;;;;;;4799265;29;20114;-79
2023/12/24 06:07:33;;;;;;;0.43;0.20;;;9.20;99.90;;;;;;4798833;29;20038;-77
2023/12/24 06:10:00;;;;;;;1.90;0.30;;;9.20;99.90;;;;;;4797856;30;20102;-78
2023/12/24 06:12:26;;;;;;;0.90;0.22;;;9.20;99.90;;;;;;4782344;30;20269;-78
2023/12/24 06:14:52;;;;;;;0.50;0.20;;;9.20;99.90;;;;;;4825357;29;20065;-79
2023/12/24 06:17:27;;;;;;;0.65;0.20;;;9.20;99.90;;;;;;4854820;29;20297;-78
2023/12/24 06:19:53;;;;;;;0.63;0.10;;;9.20;99.90;;;;;;4852796;29;20074;-77
2023/12/24 06:22:22;;;;;;;1.70;0.30;;;9.20;99.90;;;;;;4853791;29;20227;-80
2023/12/24 06:24:53;;;;;;;0.43;0.20;;;9.20;99.90;;;;;;4852879;29;20242;-80
2023/12/24 06:27:19;;;;;;;0.70;0.20;;;9.10;99.90;;;;;;4853930;29;20022;-78
2023/12/24 06:29:44;;;;;;;0.75;0.20;;;9.20;99.90;;;;;;4852618;29;20045;-79
2023/12/24 06:32:10;;;;;;;0.85;0.22;;;9.20;99.90;;;;;;4853751;29;20316;-76
2023/12/24 06:34:35;;;;;;;0.50;0.20;;;9.20;99.90;;;;;;4853116;29;20030;-75
2023/12/24 06:37:01;;;;;;;1.48;0.22;;;9.20;99.90;;;;;;4854051;29;20105;-78
2023/12/24 06:39:27;;;;;;;0.75;0.20;;;9.20;99.90;;;;;;4837568;29;20310;-76
2023/12/24 06:41:55;;;;;;;1.75;0.13;;;9.20;99.90;;;;;;4853530;29;20303;-77
2023/12/24 06:44:22;;;;;;;0.43;0.13;;;9.20;99.90;;;;;;4837373;29;20064;-78
2023/12/24 06:46:47;;;;;;;0.75;0.20;;;9.20;99.90;;;;;;4853228;29;20240;-77
2023/12/24 06:49:16;;;;;;;0.85;0.30;;;9.20;99.90;;;;;;4855449;29;20025;-78
2023/12/24 06:51:42;;;;;;;1.05;0.30;;;9.30;99.90;;;;;;4871616;29;20040;-77
2023/12/24 06:54:08;;;;;;;0.70;0.20;;;9.30;99.90;;;;;;4871798;29;20056;-77
2023/12/24 06:56:33;;;;;;;0.50;0.10;;;9.30;99.90;;;;;;4870556;29;20056;-78
2023/12/24 06:59:02;;;;;;;1.02;0.20;;;9.30;99.90;;;;;;4866967;29;20236;-77
2023/12/24 07:01:37;;;;;;;0.63;0.20;;;9.30;99.90;;;;;;4852456;29;20021;-77
2023/12/24 07:04:06;;;;;;;0.30;0.10;;;9.30;99.90;;;;;;4852015;29;20247;-78
2023/12/24 07:06:31;;;;;;;0.40;0.10;;;9.30;99.90;;;;;;4850178;29;20050;-76
2023/12/24 07:08:57;;;;;;;0.57;0.20;;;9.30;99.90;;;;;;4851005;29;20032;-77
2023/12/24 07:11:23;;;;;;;0.45;0.20;;;9.30;99.90;;;;;;4851133;29;20033;-79
2023/12/24 07:13:49;;;;;;;0.80;0.22;;;9.40;99.90;;;;;;4836187;29;20223;-77
2023/12/24 07:16:15;;;;;;;0.45;0.15;;;9.50;99.90;;;;;;4851584;29;20070;-77
2023/12/24 07:18:41;;;;;;;0.20;0.10;;;9.50;99.90;;;;;;4851578;29;20222;-77
2023/12/24 07:21:06;;;;;;;0.60;0.20;;;9.50;99.90;;;;;;4851607;29;20034;-78
2023/12/24 07:23:32;;;;;;;1.08;0.40;;;9.50;99.90;;;;;;4851713;29;20044;-78
2023/12/24 07:25:58;;;;;;;0.47;0.20;;;9.60;99.90;;;;;;4852081;29;20069;-80
2023/12/24 07:28:23;;;;;;;0.60;0.15;;;9.60;99.90;;;;;;4852355;29;20037;-78
2023/12/24 07:30:49;;;;;;;0.63;0.20;;;9.60;99.90;;;;;;4850435;29;20032;-78
2023/12/24 07:33:20;;;;;;;1.67;0.20;;;9.60;99.90;;;;;;4851518;29;20022;-77
2023/12/24 07:35:47;;;;;;;1.90;0.20;;;9.60;99.90;;;;;;4816266;29;20038;-78
2023/12/24 07:38:16;;;;;;;0.95;0.32;;;9.60;99.90;;;;;;4832699;29;20082;-78
2023/12/24 07:40:42;;;;;;;0.70;0.20;;;9.60;99.90;;;;;;4833241;29;20364;-78
2023/12/24 07:43:08;;;;;;;0.65;0.20;;;9.60;99.90;;;;;;4833754;29;20049;-77
2023/12/24 07:45:34;;;;;;;0.60;0.20;;;9.60;99.90;;;;;;4831669;29;20298;-76
2023/12/24 07:47:59;;;;;;;0.65;0.30;;;9.60;99.90;;;;;;4832275;29;20033;-78
2023/12/24 07:50:25;;;;;;;0.85;0.20;;;9.60;99.90;;;;;;4848092;29;20039;-79
2023/12/24 07:52:51;;;;;;;0.60;0.20;;;9.60;99.90;;;;;;4835091;29;20193;-76
2023/12/24 07:55:17;;;;;;;0.55;0.20;;;9.60;99.90;;;;;;4851651;29;20026;-77
2023/12/24 07:57:43;;;;;;;1.00;0.13;;;9.60;99.90;;;;;;4850991;29;20137;-78
2023/12/24 08:00:13;;;;;;;0.25;0.13;;;9.60;99.90;;;;;;4850421;29;20028;-77
2023/12/24 08:02:39;;;;;;;0.88;0.20;;;9.70;99.90;;;;;;4851070;29;20388;-76
2023/12/24 08:05:06;;;;;;;0.90;0.20;;;9.60;99.90;;;;;;4803994;29;1066240;-81
2023/12/24 08:07:31;;;;;;;1.17;0.20;;;9.60;99.90;;;;;;4865496;29;20048;-75
2023/12/24 08:09:57;;;;;;;1.27;0.20;;;9.60;99.90;;;;;;4851898;29;20318;-76
2023/12/24 08:12:23;;;;;;;0.85;0.20;;;9.70;99.90;;;;;;4852081;29;20061;-78
2023/12/24 08:14:49;;;;;;;0.70;0.10;;;9.70;99.90;;;;;;4850699;29;20028;-75
2023/12/24 08:17:15;;;;;;;1.23;0.20;;;9.80;99.90;;;;;;4851035;29;20040;-77
2023/12/24 08:19:41;;;;;;;0.55;0.10;;;9.80;99.90;;;;;;4851450;29;20379;-77
2023/12/24 08:22:07;;;;;;;0.30;0.10;;;9.80;99.90;;;;;;4850998;29;20022;-76
2023/12/24 08:24:41;;;;;;;0.35;0.10;;;9.80;99.90;;;;;;4851635;29;20390;-76
2023/12/24 08:27:07;;;;;;;0.20;0.10;;;9.90;99.90;;;;;;4850233;29;20057;-74
2023/12/24 08:29:34;;;;;;;0.77;0.10;;;10.00;99.90;;;;;;4851462;29;20045;-75
2023/12/24 08:32:02;;;;;;;0.40;0.20;;;10.00;99.90;;;;;;4835505;29;20049;-75
2023/12/24 08:34:31;;;;;;;1.55;0.20;;;10.00;99.90;;;;;;4850189;29;20017;-76
2023/12/24 08:37:03;;;;;;;;;;;10.10;99.90;;;;;;4851545;29;20033;-77
2023/12/24 08:39:28;;;;;;;0.98;0.10;;;10.10;99.90;;;;;;4851214;29;19912;-78
2023/12/24 08:42:06;;;;;;;0.60;0.10;;;10.20;99.90;;;;;;4865990;29;20070;-77
2023/12/24 08:44:35;;;;;;;;;;;10.10;99.90;;;;;;4849590;29;20034;-76
2023/12/24 08:47:16;;;;;;;0.25;0.03;;;10.10;99.90;;;;;;4851896;29;19908;-76
2023/12/24 08:49:47;;;;;;;0.50;0.10;;;10.20;99.90;;;;;;4856291;29;20041;-74
2023/12/24 08:52:13;;;;;;;0.10;0.00;;;10.20;99.90;;;;;;4870209;29;20048;-77
2023/12/24 08:57:39;;;;;;;0.40;0.10;;;10.30;99.90;;;;;;4862853;29;20057;-76
2023/12/24 09:00:05;;;;;;;0.73;0.17;;;10.30;99.90;;;;;;4868809;29;20033;-76
2023/12/24 09:02:49;;;;;;;0.75;0.20;;;10.40;99.90;;;;;;4851241;29;20093;-76
2023/12/24 09:05:27;;;;;;;0.10;0.05;;;10.50;99.90;;;;;;4862786;29;20058;-77
2023/12/24 09:07:53;;;;;;;0.38;0.10;;;10.50;99.90;;;;;;4855422;29;20033;-76
2023/12/24 09:10:32;;;;;;;1.80;0.30;;;10.60;99.90;;;;;;4863052;29;20257;-76
2023/12/24 09:12:58;;;;;;;0.30;0.10;;;10.60;99.90;;;;;;4852543;29;20038;-81
2023/12/24 09:15:23;;;;;;;1.60;0.10;;;10.60;99.90;;;;;;4865564;29;20026;-80
2023/12/24 09:17:49;;;;;;;0.40;0.10;;;10.50;99.90;;;;;;4850463;29;20058;-78
2023/12/24 09:20:15;;;;;;;0.40;0.10;;;10.40;99.90;;;;;;4851386;29;20089;-78
2023/12/24 09:22:43;;;;;;;0.60;0.10;;;10.20;99.90;;;;;;4868161;29;20026;-81
2023/12/24 09:25:09;;;;;;;;;;;10.10;99.90;;;;;;4857279;29;20049;-76
2023/12/24 09:27:35;;;;;;;0.57;0.17;;;9.90;99.90;;;;;;4865053;29;19905;-76
2023/12/24 09:30:04;;;;;;;0.30;0.10;;;9.80;99.90;;;;;;4852066;29;20030;-79
2023/12/24 09:32:41;;;;;;;0.45;0.13;;;9.80;99.90;;;;;;4877175;29;20068;-82
2023/12/24 09:35:16;;;;;;;0.47;0.20;;;9.70;99.90;;;;;;4887426;29;20051;-79
2023/12/24 09:37:48;;;;;;;0.70;0.10;;;9.60;99.90;;;;;;4871881;29;20101;-81
2023/12/24 09:40:13;;;;;;;0.40;0.10;;;9.60;99.90;;;;;;4901595;29;20036;-80
2023/12/24 09:42:39;;;;;;;0.45;0.10;;;9.60;99.90;;;;;;4889715;29;20041;-79
2023/12/24 09:45:11;;;;;;;0.25;0.10;;;9.60;99.90;;;;;;4872840;29;20084;-79
2023/12/24 09:47:42;;;;;;;0.88;0.20;;;9.60;99.90;;;;;;4872475;29;20037;-81
2023/12/24 09:50:17;;;;;;;1.50;0.28;;;9.60;99.90;;;;;;4873420;29;20282;-78
2023/12/24 09:52:45;;;;;;;1.50;0.20;;;9.50;99.90;;;;;;4871850;29;20078;-81
2023/12/24 09:55:16;;;;;;;0.30;0.13;;;9.30;99.90;;;;;;4872717;29;20041;-81
2023/12/24 09:57:42;;;;;;;0.50;0.20;;;9.10;99.90;;;;;;4872856;29;20276;-82
2023/12/24 10:00:09;;;;;;;1.40;0.20;;;9.00;99.90;;;;;;4873207;29;20090;-79
2023/12/24 10:03:39;;;;;;;0.70;0.20;;;9.00;99.90;;;;;;4872570;29;20062;-79
2023/12/24 10:06:09;;;;;;;0.65;0.30;;;9.00;99.90;;;;;;4872600;29;20059;-79
2023/12/24 10:08:36;;;;;;;1.25;0.35;;;9.10;99.90;;;;;;4870232;29;20245;-79
2023/12/24 10:11:36;;;;;;;1.05;0.20;;;9.20;99.90;;;;;;4871354;29;20031;-79
2023/12/24 10:14:09;;;;;;;1.88;0.20;;;9.20;99.90;;;;;;4881204;29;20047;-79
2023/12/24 10:16:43;;;;;;;0.82;0.20;;;9.20;99.90;;;;;;4876813;29;20300;-81
2023/12/24 10:19:09;;;;;;;0.90;0.20;;;9.30;99.90;;;;;;4863461;29;20067;-79
2023/12/24 10:21:35;;;;;;;0.77;0.20;;;9.30;99.90;;;;;;4890294;29;20161;-75
2023/12/24 10:24:05;;;;;;;0.85;0.20;;;9.40;99.90;;;;;;4878302;29;20295;-76
2023/12/24 10:26:36;;;;;;;1.88;0.30;;;9.40;99.90;;;;;;4854969;29;20150;-77
2023/12/24 10:29:08;;;;;;;3.10;0.20;;;9.50;99.90;;;;;;4871444;29;20040;-77
2023/12/24 10:31:49;;;;;;;0.52;0.20;;;9.50;99.90;;;;;;4859843;29;20025;-79
2023/12/24 10:34:18;;;;;;;0.60;0.20;;;9.60;99.90;;;;;;4890753;29;20045;-76
2023/12/24 10:37:26;;;;;;;1.65;0.20;;;9.60;99.90;;;;;;4890204;29;20253;-78
2023/12/24 10:39:51;;;;;;;0.77;0.28;;;9.70;99.90;;;;;;4890284;29;20312;-78
2023/12/24 10:42:17;;;;;;;0.55;0.13;;;9.60;99.90;;;;;;4881996;29;20050;-77
2023/12/24 10:44:49;;;;;;;0.40;0.10;;;9.70;99.90;;;;;;4870305;29;20093;-77
2023/12/24 10:47:14;;;;;;;0.35;0.15;;;9.80;99.90;;;;;;4871832;29;20036;-79
2023/12/24 10:49:40;;;;;;;0.47;0.20;;;9.80;99.90;;;;;;4878628;29;20096;-77
2023/12/24 10:52:06;;;;;;;0.77;0.30;;;9.80;99.90;;;;;;4872177;29;20048;-77
2023/12/24 10:54:36;;;;;;;1.08;0.30;;;9.80;99.90;;;;;;4855176;29;20057;-77
2023/12/24 10:57:39;;;;;;;0.60;0.10;;;9.80;99.90;;;;;;4850912;29;20121;-78
2023/12/24 11:00:18;;;;;;;0.30;0.10;;;9.90;99.90;;;;;;4841364;29;20056;-78
2023/12/24 11:02:47;;;;;;;1.27;0.25;;;10.00;99.90;;;;;;4832218;29;20106;-76
2023/12/24 11:05:40;;;;;;;0.55;0.10;;;10.00;99.90;;;;;;4825457;29;20336;-76
2023/12/24 11:08:21;;;;;;;0.13;0.10;;;9.90;99.90;;;;;;4851389;29;20054;-79
2023/12/24 11:11:04;;;;;;;2.03;0.20;;;10.10;99.90;;;;;;4850437;29;20036;-77
2023/12/24 11:13:34;;;;;;;0.82;0.10;;;10.10;99.90;;;;;;4854776;29;20045;-77
2023/12/24 11:16:10;;;;;;;1.27;0.10;;;10.30;99.90;;;;;;4849959;29;20077;-73
2023/12/24 11:18:56;;;;;;;0.70;0.20;;;10.40;99.90;;;;;;4832324;29;20043;-77
2023/12/24 11:21:25;;;;;;;0.35;0.10;;;10.50;99.90;;;;;;4833143;29;20041;-76
2023/12/24 11:24:29;;;;;;;0.57;0.10;;;10.60;99.90;;;;;;4832116;29;20057;-76
2023/12/24 11:27:00;;;;;;;0.80;0.10;;;10.80;99.90;;;;;;4779359;30;20051;-78
2023/12/24 11:30:02;;;;;;;1.35;0.20;;;10.90;99.90;;;;;;4796556;29;20102;-74
2023/12/24 11:35:52;;;;;;;1.00;0.20;;;11.00;99.90;;;;;;4787339;29;20126;-77
2023/12/24 11:38:40;;;;;;;0.40;0.10;;;11.10;99.90;;;;;;4777945;30;20059;-77
2023/12/24 11:41:14;;;;;;;0.55;0.10;;;11.10;99.90;;;;;;4774143;30;20059;-73
2023/12/24 11:43:57;;;;;;;0.50;0.10;;;11.10;99.90;;;;;;4777480;30;20127;-76
2023/12/24 11:46:39;;;;;;;1.10;0.40;;;11.10;99.90;;;;;;4777878;30;20075;-75
2023/12/24 11:49:11;;;;;;;0.73;0.22;;;11.30;99.90;;;;;;4778274;30;20040;-75
2023/12/24 11:51:40;;;;;;;0.10;0.10;;;11.30;99.90;;;;;;4784426;29;20040;-70
2023/12/24 11:54:09;;;;;;;3.33;0.85;;;11.40;99.90;;;;;;4777466;30;20051;-78
2023/12/24 11:56:35;;;;;;;0.73;0.20;;;11.50;99.90;;;;;;4777840;30;20040;-75
2023/12/24 11:59:04;;;;;;;1.90;1.17;;;11.50;99.90;;;;;;4795560;30;20023;-74
2023/12/24 12:01:39;;;;;;;0.70;0.10;;;11.60;99.90;;;;;;4795282;30;20062;-78
2023/12/24 12:04:19;;;;;;;1.08;0.22;;;11.70;99.90;;;;;;4810402;29;20046;-78
2023/12/24 12:06:47;;;;;;;1.23;0.25;;;11.80;99.90;;;;;;4830538;29;20068;-77
2023/12/24 12:09:14;;;;;;;0.38;0.10;;;11.70;99.90;;;;;;4868717;29;20101;-78
2023/12/24 12:11:42;;;;;;;0.55;0.10;;;11.80;99.90;;;;;;4884863;29;20057;-80
2023/12/24 12:14:20;;;;;;;0.90;0.30;;;12.00;99.90;;;;;;4882029;29;20088;-76
2023/12/24 12:16:48;;;;;;;0.52;0.15;;;12.10;99.90;;;;;;4855919;29;20033;-76
2023/12/24 12:19:32;;;;;;;0.52;0.10;;;12.30;99.90;;;;;;4870248;29;20331;-77
2023/12/24 12:22:07;;;;;;;0.98;0.20;;;12.30;99.90;;;;;;4870363;29;20034;-75
2023/12/24 12:24:38;;;;;;;0.55;0.17;;;12.40;99.90;;;;;;4866656;29;20129;-77
2023/12/24 12:27:25;;;;;;;0.30;0.10;;;12.20;99.90;;;;;;4869516;29;20353;-79
2023/12/24 12:29:51;;;;;;;0.50;0.10;;;12.10;99.90;;;;;;4869531;29;20045;-74
2023/12/24 12:32:33;;;;;;;1.20;0.25;;;12.00;99.90;;;;;;4869813;29;20097;-74
2023/12/24 12:35:11;;;;;;;0.55;0.20;;;12.10;99.90;;;;;;4869473;29;20050;-75
2023/12/24 12:37:37;;;;;;;0.45;0.10;;;12.20;99.90;;;;;;4869826;29;20037;-76
2023/12/24 12:40:03;;;;;;;1.23;0.20;;;12.10;99.90;;;;;;4870037;29;20036;-77
2023/12/24 12:42:29;;;;;;;0.43;0.17;;;12.00;99.90;;;;;;4883366;29;20030;-77
2023/12/24 12:44:58;;;;;;;0.75;0.20;;;12.00;99.90;;;;;;4869499;29;20051;-77
2023/12/24 12:47:26;;;;;;;0.73;0.22;;;12.10;99.90;;;;;;4869888;29;20109;-79
2023/12/24 12:49:55;;;;;;;0.35;0.10;;;12.00;99.90;;;;;;4876608;29;20059;-78
2023/12/24 12:52:21;;;;;;;0.40;0.10;;;12.00;99.90;;;;;;4888528;29;20041;-77
2023/12/24 12:54:47;;;;;;;0.80;0.20;;;12.10;99.90;;;;;;4886634;29;20052;-75
2023/12/24 12:57:31;;;;;;;0.47;0.10;;;12.10;99.80;;;;;;4888540;29;20044;-74
2023/12/24 13:00:03;;;;;;;0.50;0.17;;;12.10;99.90;;;;;;4884546;29;20033;-76
2023/12/24 13:02:29;;;;;;;0.93;0.20;;;12.00;99.90;;;;;;4869169;29;20311;-74
2023/12/24 13:04:54;;;;;;;0.77;0.20;;;11.90;99.90;;;;;;4872621;29;20055;-75
2023/12/24 13:07:28;;;;;;;0.85;0.20;;;12.00;99.90;;;;;;4872214;29;20042;-76
2023/12/24 13:09:53;;;;;;;0.82;0.20;;;11.90;99.90;;;;;;4872416;29;20036;-76
2023/12/24 13:12:20;;;;;;;0.80;0.20;;;11.90;99.90;;;;;;4872372;29;20037;-74
2023/12/24 13:14:57;;;;;;;0.95;0.20;;;11.90;99.90;;;;;;4887560;29;20029;-76
2023/12/24 13:17:32;;;;;;;0.63;0.15;;;11.90;99.90;;;;;;4872067;29;20045;-80